Time;durP1;ratioP1;P1;durP2;ratioP2;P2;SDS_P1;SDS_P2;PMS_P1;PMS_P2;Temp;Humidity;BMP_temperature;BMP_pressure;BME280_temperature;BME280_humidity;BME280_pressure;Samples;Min_cycle;Max_cycle;Signal;HPM_P1;HPM_P2
2022/03/19 00:00:11;;;;;;;16.02;3.70;;;4.30;99.90;;;;;;6186005;23;20021;-78
2022/03/19 00:02:37;;;;;;;15.13;2.83;;;4.30;99.90;;;;;;6213535;23;20040;-78
2022/03/19 00:05:03;;;;;;;10.85;2.40;;;4.20;99.90;;;;;;6186244;23;20732;-78
2022/03/19 00:07:29;;;;;;;17.88;2.50;;;4.20;99.90;;;;;;6213120;23;20397;-80
2022/03/19 00:09:56;;;;;;;15.13;2.47;;;4.20;99.90;;;;;;6213000;23;20016;-79
2022/03/19 00:12:22;;;;;;;14.60;2.35;;;4.10;99.90;;;;;;6212736;23;20063;-78
2022/03/19 00:14:47;;;;;;;12.13;2.30;;;4.80;99.90;;;;;;6185900;23;20017;-80
2022/03/19 00:17:13;;;;;;;15.10;2.38;;;4.10;99.90;;;;;;6212969;23;20021;-79
2022/03/19 00:19:39;;;;;;;16.02;2.70;;;4.70;99.90;;;;;;6213022;23;20786;-80
2022/03/19 00:22:06;;;;;;;15.82;2.67;;;4.10;99.90;;;;;;6212740;23;20016;-79
2022/03/19 00:24:34;;;;;;;15.77;2.80;;;4.00;99.90;;;;;;6212675;23;20016;-79
2022/03/19 00:27:00;;;;;;;16.52;3.05;;;4.00;99.90;;;;;;6212487;23;20450;-78
2022/03/19 00:29:25;;;;;;;12.70;2.78;;;4.70;99.90;;;;;;6213075;23;20092;-80
2022/03/19 00:31:51;;;;;;;15.88;2.85;;;4.00;99.90;;;;;;6213328;23;20012;-78
2022/03/19 00:34:17;;;;;;;16.40;2.60;;;3.90;99.90;;;;;;6185869;23;20349;-80
2022/03/19 00:36:42;;;;;;;14.30;2.30;;;3.90;99.90;;;;;;6186618;23;20020;-80
2022/03/19 00:39:08;;;;;;;19.67;2.95;;;3.90;99.90;;;;;;6186259;23;20055;-79
2022/03/19 00:41:34;;;;;;;14.13;2.20;;;3.80;99.90;;;;;;6185786;23;20048;-79
2022/03/19 00:44:00;;;;;;;19.42;3.58;;;3.80;99.90;;;;;;6234783;23;20051;-79
2022/03/19 00:46:26;;;;;;;13.02;2.17;;;3.80;99.90;;;;;;6243063;23;20024;-79
2022/03/19 00:48:52;;;;;;;23.20;3.38;;;4.40;99.90;;;;;;6243368;23;20015;-79
2022/03/19 00:51:18;;;;;;;21.70;2.70;;;3.80;99.90;;;;;;6243306;23;20040;-79
2022/03/19 00:53:43;;;;;;;14.00;2.53;;;3.80;99.90;;;;;;6243165;23;20031;-79
2022/03/19 00:56:10;;;;;;;14.40;2.78;;;3.80;99.90;;;;;;6243326;23;20020;-79
2022/03/19 00:58:35;;;;;;;16.30;2.60;;;3.80;99.90;;;;;;6242936;23;20060;-82
2022/03/19 01:01:01;;;;;;;18.50;3.20;;;3.80;99.90;;;;;;6243309;23;20063;-80
2022/03/19 01:03:30;;;;;;;11.70;2.70;;;3.80;99.90;;;;;;6243240;23;20016;-78
2022/03/19 01:05:55;;;;;;;12.48;2.50;;;3.80;99.90;;;;;;6243363;23;20038;-79
2022/03/19 01:08:21;;;;;;;18.77;2.92;;;3.80;99.90;;;;;;6243143;23;20384;-81
2022/03/19 01:10:47;;;;;;;13.63;2.45;;;3.80;99.90;;;;;;6243341;23;20020;-80
2022/03/19 01:13:13;;;;;;;14.90;2.13;;;3.80;99.90;;;;;;6242762;23;20020;-80
2022/03/19 01:15:38;;;;;;;13.25;2.67;;;4.70;99.90;;;;;;6215737;23;20904;-79
2022/03/19 01:18:05;;;;;;;17.17;3.00;;;3.80;99.90;;;;;;6243376;23;20039;-79
2022/03/19 01:20:31;;;;;;;15.93;2.92;;;3.80;99.90;;;;;;6242918;23;20610;-82
2022/03/19 01:22:57;;;;;;;16.40;2.65;;;3.80;99.90;;;;;;6243002;23;20066;-81
2022/03/19 01:25:22;;;;;;;17.90;3.08;;;3.80;99.90;;;;;;6243267;23;20039;-80
2022/03/19 01:27:50;;;;;;;16.00;3.25;;;3.80;99.90;;;;;;6242202;23;20020;-79
2022/03/19 01:30:17;;;;;;;14.27;2.55;;;3.90;99.90;;;;;;6242995;23;20016;-79
2022/03/19 01:32:43;;;;;;;21.25;2.97;;;4.70;99.90;;;;;;6243188;23;20319;-83
2022/03/19 01:35:10;;;;;;;19.25;3.20;;;3.90;99.90;;;;;;6242669;23;20349;-80
2022/03/19 01:37:37;;;;;;;19.10;2.58;;;3.90;99.90;;;;;;6242947;23;20056;-81
2022/03/19 01:40:04;;;;;;;20.38;3.10;;;3.90;99.90;;;;;;6242952;23;20040;-79
2022/03/19 01:42:33;;;;;;;17.40;2.50;;;3.90;99.90;;;;;;6242292;23;20038;-80
2022/03/19 01:45:00;;;;;;;22.35;3.15;;;3.90;99.90;;;;;;6242316;23;20042;-79
2022/03/19 01:47:28;;;;;;;16.42;2.95;;;3.80;99.90;;;;;;6215343;23;20027;-80
2022/03/19 01:49:55;;;;;;;20.70;4.20;;;3.90;99.90;;;;;;6215557;23;20016;-79
2022/03/19 01:52:21;;;;;;;23.05;3.05;;;3.90;99.90;;;;;;6242444;23;20019;-79
2022/03/19 01:54:49;;;;;;;19.55;2.72;;;3.90;99.90;;;;;;6242531;23;20108;-79
2022/03/19 01:57:18;;;;;;;12.38;2.35;;;4.70;99.90;;;;;;6242816;23;20087;-79
2022/03/19 01:59:44;;;;;;;14.73;2.95;;;3.80;99.90;;;;;;6215192;23;20013;-81
2022/03/19 02:02:11;;;;;;;16.10;3.33;;;4.70;99.90;;;;;;6242664;23;20012;-79
2022/03/19 02:04:39;;;;;;;20.98;2.85;;;3.80;99.90;;;;;;6242060;23;20023;-79
2022/03/19 02:07:09;;;;;;;9.23;2.72;;;3.80;99.90;;;;;;6242152;23;20023;-82
2022/03/19 02:09:36;;;;;;;16.38;3.85;;;3.80;99.90;;;;;;6242293;23;20040;-80
2022/03/19 02:12:03;;;;;;;13.07;2.67;;;3.80;99.90;;;;;;6242252;23;20020;-79
2022/03/19 02:14:30;;;;;;;20.63;3.65;;;3.80;99.90;;;;;;6241365;23;20500;-79
2022/03/19 02:16:55;;;;;;;14.93;3.22;;;3.90;99.90;;;;;;6242129;23;20016;-85
2022/03/19 02:19:21;;;;;;;17.90;3.10;;;3.80;99.90;;;;;;6242416;23;20016;-80
2022/03/19 02:21:49;;;;;;;21.90;3.83;;;3.80;99.90;;;;;;6242088;23;20015;-79
2022/03/19 02:27:01;;;;;;;16.17;3.35;;;4.70;99.90;;;;;;6242090;23;20020;-79
2022/03/19 02:29:27;;;;;;;12.80;3.47;;;3.80;99.90;;;;;;6242196;23;20075;-79
2022/03/19 02:31:58;;;;;;;18.13;3.10;;;4.80;99.90;;;;;;6214187;23;20043;-79
2022/03/19 02:34:24;;;;;;;12.85;2.75;;;3.80;99.90;;;;;;6189737;23;20055;-78
2022/03/19 02:36:50;;;;;;;18.15;3.00;;;3.80;99.90;;;;;;6214491;23;20016;-79
2022/03/19 02:39:21;;;;;;;10.05;2.88;;;3.80;99.90;;;;;;6214544;23;20442;-79
2022/03/19 02:41:49;;;;;;;18.05;3.30;;;3.80;99.90;;;;;;6242138;23;20026;-79
2022/03/19 02:44:17;;;;;;;13.95;3.33;;;3.80;99.90;;;;;;6241416;23;20393;-81
2022/03/19 02:46:45;;;;;;;17.02;3.03;;;3.80;99.90;;;;;;6241272;23;20024;-80
2022/03/19 02:49:11;;;;;;;19.17;2.90;;;3.80;99.90;;;;;;6243489;23;20456;-80
2022/03/19 02:51:39;;;;;;;24.33;4.07;;;3.70;99.90;;;;;;6216815;23;20012;-79
2022/03/19 02:54:07;;;;;;;16.30;3.17;;;4.00;99.90;;;;;;6216838;23;20016;-79
2022/03/19 02:56:39;;;;;;;15.88;3.38;;;3.70;99.90;;;;;;6244034;23;20015;-78
2022/03/19 02:59:17;;;;;;;16.27;3.00;;;3.70;99.90;;;;;;6244051;23;20016;-79
2022/03/19 03:01:52;;;;;;;18.58;4.50;;;3.70;99.90;;;;;;6215908;23;20063;-80
2022/03/19 03:04:18;;;;;;;15.27;3.92;;;3.70;99.90;;;;;;6243661;23;20456;-79
2022/03/19 03:06:46;;;;;;;19.52;3.22;;;3.60;99.90;;;;;;6216941;23;20668;-79
2022/03/19 03:09:14;;;;;;;19.23;3.47;;;3.70;99.90;;;;;;6244078;23;20453;-81
2022/03/19 03:11:40;;;;;;;13.68;2.92;;;3.70;99.90;;;;;;6191449;23;20142;-79
2022/03/19 03:14:11;;;;;;;16.15;3.08;;;3.60;99.90;;;;;;6217058;23;20775;-79
2022/03/19 03:16:37;;;;;;;15.95;3.50;;;3.60;99.90;;;;;;6244033;23;20012;-80
2022/03/19 03:19:05;;;;;;;14.70;4.03;;;3.60;99.90;;;;;;6243897;23;20020;-80
2022/03/19 03:21:35;;;;;;;14.50;3.47;;;3.80;99.90;;;;;;6243607;23;20058;-80
2022/03/19 03:24:02;;;;;;;20.70;3.55;;;3.60;99.90;;;;;;6243858;23;20016;-81
2022/03/19 03:26:29;;;;;;;15.25;3.40;;;3.60;99.90;;;;;;6244130;23;20058;-79
2022/03/19 03:28:54;;;;;;;18.65;3.75;;;3.60;99.90;;;;;;6243709;23;20012;-80
2022/03/19 03:31:20;;;;;;;15.23;3.40;;;3.60;99.90;;;;;;6243479;23;20023;-81
2022/03/19 03:33:46;;;;;;;19.98;3.97;;;3.50;99.90;;;;;;6244009;23;20016;-80
2022/03/19 03:36:12;;;;;;;19.38;3.83;;;3.50;99.90;;;;;;6244201;23;20016;-81
2022/03/19 03:38:38;;;;;;;19.90;4.07;;;3.50;99.90;;;;;;6244263;23;20472;-81
2022/03/19 03:41:04;;;;;;;24.15;4.35;;;3.80;99.90;;;;;;6244094;23;20325;-79
2022/03/19 03:43:29;;;;;;;16.38;3.53;;;3.50;99.90;;;;;;6243433;23;20333;-81
2022/03/19 03:45:55;;;;;;;14.52;3.55;;;3.50;99.90;;;;;;6243564;23;20026;-80
2022/03/19 03:48:21;;;;;;;17.83;4.00;;;3.50;99.90;;;;;;6243631;23;20020;-80
2022/03/19 03:50:52;;;;;;;18.80;3.80;;;3.40;99.90;;;;;;6243896;23;20050;-79
2022/03/19 03:53:18;;;;;;;24.05;4.28;;;3.40;99.90;;;;;;6243386;23;20054;-80
2022/03/19 03:55:44;;;;;;;16.45;4.05;;;4.20;99.90;;;;;;6243640;23;20016;-80
2022/03/19 03:58:11;;;;;;;13.43;3.80;;;3.40;99.90;;;;;;6243611;23;20012;-79
2022/03/19 04:00:37;;;;;;;14.70;4.15;;;3.40;99.90;;;;;;6243658;23;20051;-80
2022/03/19 04:03:04;;;;;;;15.88;3.80;;;3.30;99.90;;;;;;6243393;23;20507;-80
2022/03/19 04:05:30;;;;;;;17.13;4.22;;;3.30;99.90;;;;;;6243139;23;20016;-81
2022/03/19 04:07:57;;;;;;;13.18;3.70;;;3.30;99.90;;;;;;6243829;23;20012;-80
2022/03/19 04:10:23;;;;;;;18.33;4.13;;;3.30;99.90;;;;;;6243585;23;20512;-79
2022/03/19 04:12:49;;;;;;;17.42;4.28;;;3.30;99.90;;;;;;6243511;23;20016;-80
2022/03/19 04:15:14;;;;;;;25.00;4.55;;;3.30;99.90;;;;;;6243738;23;20012;-80
2022/03/19 04:17:43;;;;;;;21.95;4.40;;;3.20;99.90;;;;;;6243137;23;20062;-79
2022/03/19 04:20:09;;;;;;;14.55;3.65;;;4.10;99.90;;;;;;6216336;23;20397;-80
2022/03/19 04:22:36;;;;;;;19.70;4.30;;;3.20;99.90;;;;;;6243638;23;20020;-80
2022/03/19 04:25:03;;;;;;;11.55;3.63;;;3.20;99.90;;;;;;6243608;23;20016;-80
2022/03/19 04:27:29;;;;;;;20.90;4.18;;;3.10;99.90;;;;;;6242939;23;20024;-81
2022/03/19 04:29:56;;;;;;;14.93;4.20;;;3.20;99.90;;;;;;6242952;23;20059;-82
2022/03/19 04:32:22;;;;;;;23.50;5.43;;;3.10;99.90;;;;;;6243187;23;20020;-78
2022/03/19 04:34:47;;;;;;;17.73;4.68;;;3.10;99.90;;;;;;6242833;23;20345;-80
2022/03/19 04:37:13;;;;;;;16.50;4.72;;;3.10;99.90;;;;;;6242770;23;20389;-79
2022/03/19 04:39:38;;;;;;;22.80;4.60;;;3.10;99.90;;;;;;6243243;23;20020;-80
2022/03/19 04:42:04;;;;;;;23.73;5.65;;;3.10;99.90;;;;;;6243107;23;20012;-80
2022/03/19 04:44:30;;;;;;;19.20;5.38;;;3.10;99.90;;;;;;6242865;23;20345;-80
2022/03/19 04:46:55;;;;;;;21.67;5.60;;;3.10;99.90;;;;;;6243343;23;20086;-81
2022/03/19 04:49:21;;;;;;;18.05;5.00;;;3.10;99.90;;;;;;6242803;23;20552;-81
2022/03/19 04:51:49;;;;;;;20.67;4.72;;;4.20;99.90;;;;;;6242797;23;20016;-80
2022/03/19 04:54:16;;;;;;;18.70;5.32;;;3.10;99.90;;;;;;6242910;23;20028;-80
2022/03/19 04:56:42;;;;;;;19.02;5.10;;;4.10;99.90;;;;;;6243064;23;20052;-81
2022/03/19 04:59:11;;;;;;;17.02;4.80;;;3.10;99.90;;;;;;6215648;23;20027;-79
2022/03/19 05:01:37;;;;;;;13.88;5.35;;;3.10;99.90;;;;;;6242310;23;20540;-81
2022/03/19 05:04:03;;;;;;;19.15;5.80;;;3.90;99.90;;;;;;6242731;23;20146;-79
2022/03/19 05:06:29;;;;;;;16.80;5.10;;;3.10;99.90;;;;;;6241822;23;20143;-80
2022/03/19 05:11:39;;;;;;;20.23;5.32;;;3.10;99.90;;;;;;6241820;23;20099;-79
2022/03/19 05:14:06;;;;;;;18.05;5.28;;;3.10;99.90;;;;;;6243201;23;20664;-81
2022/03/19 05:16:32;;;;;;;17.40;5.68;;;4.00;99.90;;;;;;6243165;23;20011;-80
2022/03/19 05:18:58;;;;;;;20.02;6.30;;;4.20;99.90;;;;;;6243327;23;20023;-83
2022/03/19 05:21:23;;;;;;;17.92;4.78;;;3.10;99.90;;;;;;6243070;23;20032;-82
2022/03/19 05:23:49;;;;;;;17.95;5.38;;;3.40;99.90;;;;;;6242847;23;20035;-81
2022/03/19 05:26:15;;;;;;;24.63;5.35;;;3.90;99.90;;;;;;6243446;23;20016;-80
2022/03/19 05:28:40;;;;;;;20.73;6.38;;;3.10;99.90;;;;;;6243077;23;20019;-80
2022/03/19 05:31:08;;;;;;;27.27;6.43;;;3.10;99.90;;;;;;6243048;23;20750;-80
2022/03/19 05:36:18;;;;;;;16.50;5.70;;;4.00;99.90;;;;;;6243214;23;20082;-80
2022/03/19 05:38:45;;;;;;;15.48;5.63;;;3.10;99.90;;;;;;6242478;23;20396;-84
2022/03/19 05:41:11;;;;;;;18.30;5.47;;;3.30;99.90;;;;;;6242785;23;20302;-79
2022/03/19 05:43:36;;;;;;;23.10;6.18;;;3.10;99.90;;;;;;6215075;23;20020;-78
2022/03/19 05:46:02;;;;;;;23.17;6.63;;;3.00;99.90;;;;;;6243066;23;20024;-81
2022/03/19 05:48:28;;;;;;;19.17;6.28;;;3.50;99.90;;;;;;6243077;23;20016;-82
2022/03/19 05:50:54;;;;;;;18.67;6.65;;;3.10;99.90;;;;;;6242928;23;20020;-85
2022/03/19 05:53:19;;;;;;;21.25;6.38;;;3.10;99.90;;;;;;6242281;23;20052;-80
2022/03/19 05:55:45;;;;;;;15.27;6.40;;;3.10;99.90;;;;;;6215007;23;20020;-80
2022/03/19 05:58:11;;;;;;;19.30;6.18;;;3.10;99.90;;;;;;6242610;23;20074;-80
2022/03/19 06:00:36;;;;;;;29.75;8.40;;;4.10;99.90;;;;;;6215321;23;20067;-80
2022/03/19 06:03:02;;;;;;;29.15;7.47;;;3.10;99.90;;;;;;6242398;23;20068;-79
2022/03/19 06:05:28;;;;;;;22.60;6.75;;;3.70;99.90;;;;;;6242071;23;20015;-79
2022/03/19 06:07:54;;;;;;;22.65;6.93;;;3.10;99.90;;;;;;6214447;23;20016;-78
2022/03/19 06:10:21;;;;;;;20.77;6.22;;;3.20;99.90;;;;;;6242100;23;20016;-79
2022/03/19 06:12:47;;;;;;;19.90;6.28;;;4.10;99.90;;;;;;6242231;23;20016;-79
2022/03/19 06:15:13;;;;;;;19.45;6.10;;;4.10;99.90;;;;;;6242237;23;20031;-79
2022/03/19 06:17:38;;;;;;;23.70;6.97;;;3.20;99.90;;;;;;6242397;23;20063;-79
2022/03/19 06:20:05;;;;;;;18.27;6.60;;;3.20;99.90;;;;;;6242414;23;20021;-79
2022/03/19 06:22:30;;;;;;;22.17;6.30;;;3.20;99.90;;;;;;6241576;23;20472;-79
2022/03/19 06:24:56;;;;;;;28.25;7.57;;;3.20;99.90;;;;;;6241556;23;20020;-79
2022/03/19 06:27:22;;;;;;;16.55;7.68;;;3.20;99.90;;;;;;6242017;23;20078;-79
2022/03/19 06:29:48;;;;;;;24.42;7.22;;;3.30;99.90;;;;;;6242138;23;20079;-81
2022/03/19 06:32:15;;;;;;;30.17;8.07;;;3.30;99.90;;;;;;6214689;23;20345;-79
2022/03/19 06:34:40;;;;;;;20.42;7.47;;;3.30;99.90;;;;;;6241801;23;20016;-78
2022/03/19 06:37:21;;;;;;;21.63;7.43;;;3.30;99.90;;;;;;6241477;23;20103;-79
2022/03/19 06:39:54;;;;;;;22.58;7.50;;;4.40;99.90;;;;;;6214037;23;20020;-79
2022/03/19 06:42:22;;;;;;;27.42;8.15;;;3.40;99.90;;;;;;6215337;23;20095;-79
2022/03/19 06:44:48;;;;;;;19.08;7.80;;;4.20;99.90;;;;;;6241441;23;20016;-79
2022/03/19 06:47:14;;;;;;;23.90;7.97;;;3.50;99.90;;;;;;6241775;23;20016;-79
2022/03/19 06:49:39;;;;;;;28.63;7.15;;;3.50;99.90;;;;;;6214662;23;20076;-79
2022/03/19 06:52:05;;;;;;;22.73;7.75;;;3.50;99.90;;;;;;6242540;23;20012;-79
2022/03/19 06:54:32;;;;;;;25.83;6.90;;;3.60;99.90;;;;;;6241965;23;20472;-79
2022/03/19 06:56:58;;;;;;;17.08;6.88;;;3.70;99.90;;;;;;6214670;23;20089;-79
2022/03/19 06:59:24;;;;;;;24.95;7.93;;;3.70;99.90;;;;;;6242102;23;20475;-78
2022/03/19 07:01:50;;;;;;;22.42;6.97;;;3.80;99.90;;;;;;6241563;23;20099;-78
2022/03/19 07:04:16;;;;;;;21.02;7.75;;;4.50;99.90;;;;;;6214753;23;20024;-79
2022/03/19 07:06:41;;;;;;;17.17;7.15;;;4.60;99.90;;;;;;6241556;23;20016;-80
2022/03/19 07:09:15;;;;;;;20.90;7.30;;;4.00;99.90;;;;;;6242157;23;20318;-82
2022/03/19 07:11:41;;;;;;;27.90;7.43;;;4.10;99.90;;;;;;6241477;23;20016;-80
2022/03/19 07:14:07;;;;;;;18.08;6.53;;;4.10;99.90;;;;;;6215073;23;20033;-83
2022/03/19 07:16:33;;;;;;;26.77;6.53;;;4.20;99.90;;;;;;6241694;23;20016;-81
2022/03/19 07:18:59;;;;;;;21.85;6.53;;;4.30;99.90;;;;;;6241782;23;20020;-79
2022/03/19 07:21:25;;;;;;;23.48;6.40;;;4.40;99.90;;;;;;6241948;23;20020;-78
2022/03/19 07:23:50;;;;;;;17.48;5.95;;;4.40;99.90;;;;;;6241588;23;20016;-78
2022/03/19 07:26:16;;;;;;;20.58;6.72;;;5.10;99.90;;;;;;6241460;23;20034;-79
2022/03/19 07:28:43;;;;;;;19.23;6.50;;;5.50;99.90;;;;;;6241795;23;20024;-79
2022/03/19 07:31:09;;;;;;;19.85;6.57;;;5.30;99.90;;;;;;6241787;23;20016;-80
2022/03/19 07:33:34;;;;;;;14.02;5.55;;;4.80;99.90;;;;;;6242516;23;20059;-79
2022/03/19 07:36:04;;;;;;;19.20;5.82;;;5.80;99.90;;;;;;6243861;23;20012;-78
2022/03/19 07:38:33;;;;;;;19.48;5.90;;;4.90;99.90;;;;;;6244397;23;20038;-78
2022/03/19 07:43:43;;;;;;;19.15;6.20;;;5.10;99.90;;;;;;6242889;23;20024;-78
2022/03/19 07:46:10;;;;;;;17.88;5.50;;;5.20;99.90;;;;;;6242987;23;20039;-80
2022/03/19 07:48:36;;;;;;;17.27;5.68;;;5.30;99.90;;;;;;6243446;23;20445;-80
2022/03/19 07:51:01;;;;;;;16.23;5.15;;;5.30;99.90;;;;;;6244064;23;20027;-82
2022/03/19 07:53:27;;;;;;;20.67;5.82;;;5.90;99.90;;;;;;6244928;23;20066;-79
2022/03/19 07:55:54;;;;;;;20.20;5.85;;;5.50;99.90;;;;;;6243690;23;20019;-80
2022/03/19 07:58:20;;;;;;;16.63;5.45;;;5.60;99.90;;;;;;6242702;23;20042;-78
2022/03/19 08:00:46;;;;;;;18.73;5.00;;;6.10;99.90;;;;;;6243195;23;20092;-80
2022/03/19 08:03:11;;;;;;;17.55;5.47;;;6.90;99.90;;;;;;6242960;23;20020;-79
2022/03/19 08:05:42;;;;;;;20.58;5.15;;;6.00;99.90;;;;;;6243237;23;20477;-79
2022/03/19 08:08:08;;;;;;;16.38;4.28;;;6.00;99.90;;;;;;6217003;23;20031;-78
2022/03/19 08:10:36;;;;;;;16.05;4.45;;;6.10;99.90;;;;;;6243298;23;20016;-80
2022/03/19 08:13:07;;;;;;;17.95;5.32;;;7.00;99.90;;;;;;6242074;23;20024;-83
2022/03/19 08:15:34;;;;;;;18.02;4.18;;;6.40;99.90;;;;;;6242603;23;20028;-77
2022/03/19 08:18:01;;;;;;;15.60;4.80;;;6.50;99.90;;;;;;6243516;23;20016;-79
2022/03/19 08:20:27;;;;;;;20.85;4.40;;;6.90;99.90;;;;;;6243435;23;20039;-79
2022/03/19 08:22:53;;;;;;;18.08;4.20;;;6.90;99.90;;;;;;6243006;23;20059;-79
2022/03/19 08:25:19;;;;;;;17.23;4.22;;;7.60;99.90;;;;;;6242395;23;20031;-79
2022/03/19 08:27:45;;;;;;;14.23;3.85;;;6.90;99.90;;;;;;6215891;23;20043;-80
2022/03/19 08:30:11;;;;;;;15.18;4.10;;;8.00;99.90;;;;;;6242622;23;20016;-79
2022/03/19 08:32:37;;;;;;;11.10;3.08;;;7.20;99.90;;;;;;6242785;23;20046;-79
2022/03/19 08:35:03;;;;;;;18.92;4.20;;;7.40;99.90;;;;;;6242637;23;20016;-79
2022/03/19 08:37:29;;;;;;;17.33;3.38;;;7.50;99.90;;;;;;6243000;23;20028;-80
2022/03/19 08:42:39;;;;;;;13.55;3.78;;;8.60;99.90;;;;;;6242695;22;20035;-80
2022/03/19 08:45:06;;;;;;;14.15;3.35;;;8.60;99.90;;;;;;6214236;23;20342;-79
2022/03/19 08:47:31;;;;;;;14.15;3.63;;;8.20;99.90;;;;;;6242996;23;20039;-79
2022/03/19 08:49:57;;;;;;;20.25;4.07;;;8.80;99.90;;;;;;6242914;23;20437;-79
2022/03/19 08:52:23;;;;;;;14.73;3.70;;;9.40;99.90;;;;;;6215376;23;20341;-81
2022/03/19 08:54:49;;;;;;;13.82;3.40;;;9.00;99.90;;;;;;6214874;23;20024;-79
2022/03/19 08:57:14;;;;;;;19.05;3.78;;;9.70;99.90;;;;;;6242842;23;20012;-78
2022/03/19 08:59:40;;;;;;;14.60;3.50;;;9.10;99.90;;;;;;6215128;23;20475;-81
2022/03/19 09:02:06;;;;;;;16.05;3.42;;;9.30;99.90;;;;;;6242732;23;20066;-80
2022/03/19 09:04:32;;;;;;;13.93;3.45;;;10.20;99.90;;;;;;6242399;23;20101;-78
2022/03/19 09:06:58;;;;;;;12.25;3.13;;;9.60;99.90;;;;;;6215413;23;20024;-81
2022/03/19 09:09:24;;;;;;;11.75;3.70;;;9.90;99.90;;;;;;6241763;23;20753;-81
2022/03/19 09:11:50;;;;;;;14.82;3.42;;;10.40;99.90;;;;;;6242398;23;20016;-79
2022/03/19 09:14:18;;;;;;;15.50;3.20;;;10.60;99.90;;;;;;6242633;23;20476;-82
2022/03/19 09:16:44;;;;;;;13.98;3.47;;;10.20;99.90;;;;;;6242233;23;20095;-79
2022/03/19 09:19:10;;;;;;;12.75;3.10;;;10.40;99.90;;;;;;6241955;23;20466;-81
2022/03/19 09:21:36;;;;;;;15.95;3.58;;;10.90;99.90;;;;;;6214813;23;20055;-80
2022/03/19 09:24:03;;;;;;;11.43;2.92;;;10.70;99.90;;;;;;6215777;23;20373;-81
2022/03/19 09:26:29;;;;;;;14.43;3.58;;;10.90;99.90;;;;;;6242531;23;20055;-79
2022/03/19 09:28:55;;;;;;;16.08;2.47;;;11.00;99.90;;;;;;6215505;23;20020;-79
2022/03/19 09:31:21;;;;;;;10.20;3.03;;;11.40;99.90;;;;;;6242502;23;20023;-79
2022/03/19 09:33:47;;;;;;;17.75;2.75;;;11.30;99.90;;;;;;6241822;23;20432;-83
2022/03/19 09:36:14;;;;;;;10.88;2.75;;;11.60;99.90;;;;;;6214943;23;20087;-83
2022/03/19 09:38:41;;;;;;;11.90;2.75;;;12.10;99.90;;;;;;6242406;23;20059;-84
2022/03/19 09:41:07;;;;;;;12.93;2.20;;;11.90;99.90;;;;;;6215495;23;20044;-82
2022/03/19 09:43:33;;;;;;;11.45;2.22;;;11.80;99.90;;;;;;6242057;23;20341;-83
2022/03/19 09:45:59;;;;;;;11.73;2.65;;;11.70;99.60;;;;;;6242146;23;20027;-81
2022/03/19 09:48:25;;;;;;;9.55;2.13;;;12.40;99.90;;;;;;6214634;23;20020;-85
2022/03/19 09:50:56;;;;;;;13.02;2.60;;;11.60;98.40;;;;;;6214681;23;20464;-81
2022/03/19 09:53:23;;;;;;;9.75;2.20;;;11.80;99.20;;;;;;6214748;23;20476;-82
2022/03/19 09:55:49;;;;;;;7.70;2.20;;;12.10;99.00;;;;;;6189919;23;20030;-83
2022/03/19 09:58:15;;;;;;;8.57;2.03;;;12.10;96.80;;;;;;6214826;23;20050;-83
2022/03/19 10:00:43;;;;;;;8.88;2.10;;;12.10;99.10;;;;;;6242156;23;20012;-83
2022/03/19 10:03:10;;;;;;;13.77;2.15;;;12.20;98.30;;;;;;6241497;23;20051;-82
2022/03/19 10:08:41;;;;;;;13.23;3.20;;;12.50;97.20;;;;;;6242065;23;20437;-84
2022/03/19 10:11:09;;;;;;;10.48;2.30;;;12.70;98.60;;;;;;6242149;23;20012;-82
2022/03/19 10:13:44;;;;;;;9.70;2.13;;;12.80;96.80;;;;;;6215092;23;20020;-83
2022/03/19 10:16:20;;;;;;;;;;;12.80;96.90;;;;;;6215664;23;20020;-84
2022/03/19 10:18:56;;;;;;;9.70;2.00;;;12.90;96.80;;;;;;6239745;23;19915;-81
2022/03/19 10:21:22;;;;;;;10.45;2.38;;;13.00;95.90;;;;;;6242011;23;20020;-82
2022/03/19 10:23:48;;;;;;;17.00;2.83;;;13.10;97.30;;;;;;6241771;23;20023;-81
2022/03/19 10:26:25;;;;;;;9.68;2.33;;;13.20;95.30;;;;;;6188409;23;20020;-83
2022/03/19 10:29:00;;;;;;;8.85;2.53;;;13.30;94.60;;;;;;6212437;23;20015;-80
2022/03/19 10:31:35;;;;;;;7.72;1.90;;;13.10;93.50;;;;;;6241732;23;20020;-82
2022/03/19 10:34:02;;;;;;;11.48;2.67;;;13.50;94.10;;;;;;6214137;23;20483;-81
2022/03/19 10:36:34;;;;;;;9.07;2.03;;;13.60;93.10;;;;;;6242292;23;20099;-77
2022/03/19 10:39:21;;;;;;;10.93;2.60;;;13.50;91.40;;;;;;6242380;23;20384;-79
2022/03/19 10:41:49;;;;;;;7.13;2.15;;;13.60;93.90;;;;;;6214834;23;20023;-84
2022/03/19 10:44:20;;;;;;;10.80;2.25;;;13.60;93.20;;;;;;6241683;23;20016;-81
2022/03/19 10:46:50;;;;;;;10.48;2.15;;;13.70;92.80;;;;;;6214653;23;20008;-79
2022/03/19 10:49:18;;;;;;;9.20;2.20;;;13.80;92.60;;;;;;6189489;23;20023;-81
2022/03/19 10:51:46;;;;;;;9.50;2.17;;;13.80;92.00;;;;;;6241890;23;20023;-78
2022/03/19 10:54:14;;;;;;;9.05;2.13;;;14.30;91.90;;;;;;6241863;23;20023;-80
2022/03/19 10:56:40;;;;;;;9.57;2.40;;;13.90;91.40;;;;;;6241936;23;20020;-83
2022/03/19 10:59:06;;;;;;;9.15;1.58;;;13.90;88.70;;;;;;6241465;23;20448;-81
2022/03/19 11:01:37;;;;;;;9.35;1.65;;;14.00;90.90;;;;;;6241886;23;20023;-80
2022/03/19 11:04:06;;;;;;;5.30;1.60;;;14.20;88.30;;;;;;6214042;23;20116;-83
2022/03/19 11:06:40;;;;;;;9.55;2.10;;;13.80;86.40;;;;;;6241729;23;20019;-81
2022/03/19 11:09:10;;;;;;;10.52;1.90;;;14.00;86.20;;;;;;6242534;23;20030;-81
2022/03/19 11:11:48;;;;;;;7.60;1.20;;;14.00;84.30;;;;;;6216840;23;20091;-82
2022/03/19 11:14:22;;;;;;;8.48;1.75;;;14.10;85.60;;;;;;6243644;23;20020;-81
2022/03/19 11:17:27;;;;;;;6.68;2.08;;;14.20;84.50;;;;;;6216826;23;20016;-82
2022/03/19 11:19:54;;;;;;;11.23;2.72;;;14.40;86.80;;;;;;6215871;23;20078;-82
2022/03/19 11:22:21;;;;;;;12.35;2.90;;;14.60;89.00;;;;;;6243904;23;20020;-79
2022/03/19 11:25:09;;;;;;;13.60;2.13;;;14.70;90.20;;;;;;6243656;23;20027;-82
2022/03/19 11:27:38;;;;;;;8.73;1.80;;;14.80;89.10;;;;;;6243504;23;20016;-82
2022/03/19 11:30:05;;;;;;;8.38;2.03;;;14.90;88.50;;;;;;6243697;23;20020;-82
2022/03/19 11:32:31;;;;;;;9.52;2.03;;;14.90;87.40;;;;;;6243715;23;20057;-80
2022/03/19 11:34:59;;;;;;;7.68;1.50;;;15.00;87.50;;;;;;6243203;23;20452;-79
2022/03/19 11:37:46;;;;;;;8.40;1.80;;;15.10;86.40;;;;;;6243383;23;20318;-82
2022/03/19 11:40:12;;;;;;;12.23;2.08;;;15.20;86.60;;;;;;6091145;23;20030;-79
2022/03/19 11:42:55;;;;;;;9.25;2.17;;;15.20;85.20;;;;;;6090831;23;20029;-84
2022/03/19 11:45:22;;;;;;;6.80;1.77;;;15.40;85.70;;;;;;6091146;23;20493;-86
2022/03/19 11:47:48;;;;;;;9.40;2.35;;;15.20;81.10;;;;;;6091239;23;20026;-82
2022/03/19 11:50:24;;;;;;;5.07;1.60;;;15.30;80.30;;;;;;6091259;23;20023;-82
2022/03/19 11:52:55;;;;;;;13.88;1.98;;;15.40;80.40;;;;;;6090860;23;20109;-81
2022/03/19 11:55:24;;;;;;;9.30;1.90;;;15.20;79.10;;;;;;6090767;23;20019;-82
2022/03/19 11:57:59;;;;;;;9.32;1.48;;;15.30;80.70;;;;;;6091246;23;20030;-84
2022/03/19 12:00:27;;;;;;;9.65;2.47;;;15.20;79.20;;;;;;6043553;23;20730;-85
2022/03/19 12:03:07;;;;;;;8.30;1.98;;;15.40;80.90;;;;;;6090968;23;20027;-81
2022/03/19 12:05:36;;;;;;;8.07;1.30;;;15.40;78.60;;;;;;6091616;23;20368;-82
2022/03/19 12:08:13;;;;;;;8.25;1.63;;;15.40;78.00;;;;;;6090700;23;20452;-82
2022/03/19 12:11:02;;;;;;;6.95;1.17;;;15.60;77.90;;;;;;6091373;23;20015;-85
2022/03/19 12:13:28;;;;;;;5.78;1.38;;;15.60;75.10;;;;;;6091251;23;20026;-84
2022/03/19 12:15:57;;;;;;;3.80;1.13;;;15.60;77.30;;;;;;6091142;23;20019;-85
2022/03/19 12:18:34;;;;;;;6.00;1.20;;;15.60;73.70;;;;;;6233842;23;20385;-82
2022/03/19 12:21:14;;;;;;;5.47;1.30;;;15.50;75.80;;;;;;6243120;23;20016;-83
2022/03/19 12:23:58;;;;;;;5.63;1.20;;;15.60;74.60;;;;;;6215335;23;20024;-84
2022/03/19 12:26:25;;;;;;;5.90;1.52;;;15.50;74.60;;;;;;6215501;23;20024;-83
2022/03/19 12:29:02;;;;;;;5.85;1.23;;;15.60;74.00;;;;;;6191093;23;20333;-83
2022/03/19 12:31:34;;;;;;;7.57;1.55;;;15.80;73.90;;;;;;6242904;23;20743;-80
2022/03/19 12:34:00;;;;;;;5.43;1.05;;;15.50;73.00;;;;;;6215613;23;20099;-82
2022/03/19 12:36:27;;;;;;;4.97;1.38;;;15.80;74.40;;;;;;6242972;23;20373;-82
2022/03/19 12:38:52;;;;;;;7.95;1.10;;;15.90;73.00;;;;;;6215114;23;20127;-84
2022/03/19 12:41:23;;;;;;;3.47;1.00;;;15.60;71.80;;;;;;6215252;23;20028;-82
2022/03/19 12:43:50;;;;;;;3.45;1.10;;;15.70;72.70;;;;;;6242498;23;20024;-82
2022/03/19 12:46:42;;;;;;;3.53;1.23;;;15.80;71.50;;;;;;6243040;23;20106;-82
2022/03/19 12:49:10;;;;;;;5.65;1.38;;;15.60;72.00;;;;;;6235398;23;20098;-83
2022/03/19 12:51:45;;;;;;;4.63;1.02;;;15.70;71.10;;;;;;6242425;23;20020;-83
2022/03/19 12:54:18;;;;;;;;;;;16.00;71.40;;;;;;6242865;23;20095;-84
2022/03/19 12:56:44;;;;;;;4.88;1.10;;;15.90;70.30;;;;;;6242889;23;19962;-81
2022/03/19 12:59:20;;;;;;;2.67;1.15;;;16.00;72.90;;;;;;6215563;23;20437;-82
2022/03/19 13:01:46;;;;;;;6.72;1.63;;;16.00;70.10;;;;;;6242997;23;20020;-82
2022/03/19 13:04:22;;;;;;;5.07;1.00;;;15.80;70.00;;;;;;6242790;23;20020;-81